createdAt,value
2022-10-17T00:01:59.890Z,34.05
2022-10-17T00:05:01.434Z,32.22
2022-10-17T00:08:03.297Z,32.70
2022-10-17T00:11:08.869Z,33.13
2022-10-17T00:14:11.149Z,29.37
2022-10-17T00:17:12.814Z,33.72
2022-10-17T00:20:15.874Z,30.30
2022-10-17T00:23:18.266Z,29.83
2022-10-17T00:26:20.974Z,31.20
2022-10-17T00:29:22.544Z,30.73
2022-10-17T00:32:24.570Z,28.17
2022-10-17T00:35:26.242Z,25.15
2022-10-17T00:38:28.208Z,23.90
2022-10-17T00:41:32.686Z,24.60
2022-10-17T00:44:34.217Z,27.17
2022-10-17T00:47:37.235Z,27.75
2022-10-17T00:51:00.476Z,24.77
2022-10-17T00:54:03.290Z,22.48
2022-10-17T00:57:05.560Z,25.08
2022-10-17T01:00:09.165Z,19.27
2022-10-17T01:03:10.813Z,21.20
2022-10-17T01:06:12.628Z,20.08
2022-10-17T01:09:14.358Z,21.10
2022-10-17T01:12:22.089Z,19.10
2022-10-17T01:15:42.049Z,21.08
2022-10-17T01:19:19.032Z,23.85
2022-10-17T01:22:28.057Z,20.50
2022-10-17T01:25:43.107Z,21.73
2022-10-17T01:28:54.067Z,18.80
2022-10-17T01:32:02.119Z,18.62
2022-10-17T01:35:22.076Z,23.27
2022-10-17T01:38:31.269Z,20.35
2022-10-17T01:42:19.018Z,17.52
2022-10-17T01:45:41.582Z,19.20
2022-10-17T01:48:46.406Z,21.55
2022-10-17T01:51:54.322Z,18.17
2022-10-17T01:55:03.342Z,20.85
2022-10-17T01:58:10.436Z,23.83
2022-10-17T02:01:13.151Z,18.65
2022-10-17T02:04:16.699Z,19.48
2022-10-17T02:07:18.366Z,17.30
2022-10-17T02:10:30.708Z,24.25
2022-10-17T02:14:01.152Z,18.35
2022-10-17T02:17:28.053Z,19.12
2022-10-17T02:20:47.450Z,20.58
2022-10-17T02:24:04.031Z,19.83
2022-10-17T02:27:14.043Z,19.10
2022-10-17T02:30:31.566Z,29.15
2022-10-17T02:34:05.080Z,34.38
2022-10-17T02:37:10.804Z,29.42
2022-10-17T02:40:15.316Z,29.23
2022-10-17T02:43:17.008Z,30.50
2022-10-17T02:46:22.251Z,23.15
2022-10-17T02:49:29.618Z,29.60
2022-10-17T02:52:49.044Z,29.00
2022-10-17T02:55:57.396Z,28.58
2022-10-17T02:59:00.579Z,22.25
2022-10-17T03:02:06.890Z,30.92
2022-10-17T03:05:09.579Z,34.67
2022-10-17T03:08:11.853Z,24.35
2022-10-17T03:11:13.403Z,24.50
2022-10-17T03:14:15.003Z,24.95
2022-10-17T03:17:16.921Z,26.35
2022-10-17T03:20:18.571Z,26.75
2022-10-17T03:23:20.160Z,22.23
2022-10-17T03:26:22.167Z,29.50
2022-10-17T03:29:23.793Z,23.85
2022-10-17T03:32:25.785Z,23.45
2022-10-17T03:35:27.644Z,25.17
2022-10-17T03:38:29.225Z,21.73
2022-10-17T03:41:31.251Z,26.00
2022-10-17T03:44:32.847Z,18.50
2022-10-17T03:47:34.840Z,23.67
2022-10-17T03:50:36.532Z,21.80
2022-10-17T03:53:38.339Z,26.48
2022-10-17T03:56:40.031Z,22.48
2022-10-17T03:59:41.587Z,28.12
2022-10-17T04:02:44.961Z,27.75
2022-10-17T04:05:46.536Z,23.73
2022-10-17T04:08:48.789Z,18.65
2022-10-17T04:11:50.521Z,27.02
2022-10-17T04:14:52.356Z,32.03
2022-10-17T04:17:54.144Z,29.30
2022-10-17T04:20:56.167Z,41.78
2022-10-17T04:24:00.660Z,42.75
2022-10-17T04:27:02.350Z,43.58
2022-10-17T04:30:04.667Z,42.65
2022-10-17T04:33:06.694Z,38.55
2022-10-17T04:36:13.335Z,30.42
2022-10-17T04:39:14.987Z,32.57
2022-10-17T04:42:17.016Z,25.90
2022-10-17T04:45:18.591Z,31.98
2022-10-17T04:48:20.702Z,29.00
2022-10-17T04:51:24.595Z,21.62
2022-10-17T04:54:28.550Z,24.67
2022-10-17T04:57:30.144Z,23.05
2022-10-17T05:00:32.059Z,19.95
2022-10-17T05:03:35.248Z,21.65
2022-10-17T05:06:37.939Z,28.02
2022-10-17T05:09:39.507Z,22.33
2022-10-17T05:12:41.679Z,27.17
2022-10-17T05:15:43.276Z,25.73
2022-10-17T05:18:47.427Z,25.12
2022-10-17T05:21:51.003Z,23.00
2022-10-17T05:24:52.558Z,25.48
2022-10-17T05:27:54.781Z,24.52
2022-10-17T05:30:56.763Z,21.87
2022-10-17T05:34:07.088Z,28.15
2022-10-17T05:37:10.947Z,25.95
2022-10-17T05:40:12.649Z,23.33
2022-10-17T05:43:14.884Z,23.83
2022-10-17T05:46:17.279Z,20.45
2022-10-17T05:49:32.177Z,22.25
2022-10-17T05:52:42.883Z,22.45
2022-10-17T05:55:46.829Z,24.37
2022-10-17T05:58:50.628Z,23.45
2022-10-17T06:01:54.892Z,26.83
2022-10-17T06:04:56.536Z,27.75
2022-10-17T06:08:01.131Z,24.55
2022-10-17T06:11:07.586Z,45.12
2022-10-17T06:14:11.667Z,30.20
2022-10-17T06:17:15.981Z,27.23
2022-10-17T06:20:18.166Z,31.50
2022-10-17T06:23:20.325Z,34.58
2022-10-17T06:26:22.498Z,29.58
2022-10-17T06:29:24.243Z,35.35
2022-10-17T06:32:25.820Z,37.53
2022-10-17T06:35:27.779Z,37.97
2022-10-17T06:38:29.777Z,20.98
2022-10-17T06:41:31.446Z,25.10
2022-10-17T06:44:33.067Z,31.77
2022-10-17T06:47:35.920Z,28.85
2022-10-17T06:50:37.554Z,23.73
2022-10-17T06:53:40.514Z,16.98
2022-10-17T06:56:42.106Z,20.42
2022-10-17T06:59:44.079Z,20.30
2022-10-17T07:02:45.780Z,21.35
2022-10-17T07:05:55.631Z,24.48
2022-10-17T07:08:57.562Z,30.88
2022-10-17T07:12:00.141Z,24.90
2022-10-17T07:15:04.193Z,18.87
2022-10-17T07:18:06.589Z,20.48
2022-10-17T07:21:09.048Z,21.90
2022-10-17T07:24:10.627Z,20.08
2022-10-17T07:27:13.752Z,18.98
2022-10-17T07:30:16.167Z,18.23
2022-10-17T07:33:17.780Z,15.50
2022-10-17T07:36:19.763Z,18.95
2022-10-17T07:39:21.326Z,14.50
2022-10-17T07:42:23.367Z,17.58
2022-10-17T07:45:27.682Z,18.95
2022-10-17T07:48:30.243Z,14.63
2022-10-17T07:51:31.947Z,15.63
2022-10-17T07:54:34.030Z,12.20
2022-10-17T07:57:35.590Z,13.18
2022-10-17T08:00:37.896Z,18.42
2022-10-17T08:03:39.573Z,32.65
2022-10-17T08:06:41.422Z,40.72
2022-10-17T08:09:44.327Z,13.60
2022-10-17T08:12:46.341Z,15.80
2022-10-17T08:15:48.130Z,15.57
2022-10-17T08:18:50.111Z,12.88
2022-10-17T08:21:52.755Z,14.90
2022-10-17T08:24:54.513Z,13.80
2022-10-17T08:27:56.167Z,14.38
2022-10-17T08:31:09.772Z,16.48
2022-10-17T08:34:11.352Z,13.90
2022-10-17T08:37:15.970Z,18.27
2022-10-17T08:40:27.972Z,15.15
2022-10-17T08:43:52.709Z,11.85
2022-10-17T08:46:59.153Z,10.50
2022-10-17T08:50:04.184Z,14.93
2022-10-17T08:53:41.571Z,31.08
2022-10-17T08:56:50.079Z,15.97
2022-10-17T08:59:54.314Z,13.10
2022-10-17T09:03:47.306Z,18.75
2022-10-17T09:07:14.084Z,10.90
2022-10-17T09:10:28.885Z,12.25
2022-10-17T09:13:44.014Z,14.35
2022-10-17T09:17:04.313Z,11.77
2022-10-17T09:20:20.603Z,16.92
2022-10-17T09:23:23.898Z,15.23
2022-10-17T09:26:26.302Z,13.32
2022-10-17T09:29:36.015Z,19.12
2022-10-17T09:32:41.088Z,8.95
2022-10-17T09:35:43.888Z,10.55
2022-10-17T09:38:53.136Z,11.20
2022-10-17T09:41:57.830Z,13.30
2022-10-17T09:45:25.004Z,14.85
2022-10-17T09:48:37.230Z,10.15
2022-10-17T09:51:39.480Z,12.85
2022-10-17T09:54:46.983Z,12.23
2022-10-17T09:58:03.607Z,9.75
2022-10-17T10:01:21.056Z,13.38
2022-10-17T10:04:30.225Z,8.52
2022-10-17T10:07:38.190Z,13.32
2022-10-17T10:10:43.432Z,11.18
2022-10-17T10:13:49.424Z,9.70
2022-10-17T10:16:53.854Z,12.43
2022-10-17T10:19:56.214Z,10.55
2022-10-17T10:23:18.541Z,7.05
2022-10-17T10:26:32.251Z,12.07
2022-10-17T10:29:34.389Z,8.32
2022-10-17T10:32:37.557Z,8.25
2022-10-17T10:35:39.615Z,7.62
2022-10-17T10:38:42.563Z,13.32
2022-10-17T10:41:50.813Z,9.52
2022-10-17T10:44:56.252Z,8.23
2022-10-17T10:48:00.911Z,13.77
2022-10-17T10:51:09.369Z,12.80
2022-10-17T10:54:30.011Z,8.10
2022-10-17T10:57:35.038Z,10.65
2022-10-17T11:00:39.182Z,7.72
2022-10-17T11:03:53.199Z,11.85
2022-10-17T11:07:22.709Z,7.10
2022-10-17T11:10:59.904Z,10.10
2022-10-17T11:14:23.740Z,6.30
2022-10-17T11:17:55.297Z,6.37
2022-10-17T11:21:20.689Z,9.23
2022-10-17T11:24:31.299Z,5.60
2022-10-17T11:27:34.399Z,6.43
2022-10-17T11:31:03.407Z,5.80
2022-10-17T11:34:19.666Z,6.37
2022-10-17T11:37:26.404Z,7.85
2022-10-17T11:40:33.864Z,12.48
2022-10-17T11:43:52.445Z,7.22
2022-10-17T11:47:05.922Z,13.32
2022-10-17T11:54:09.040Z,8.30
2022-10-17T11:57:37.666Z,8.35
2022-10-17T12:00:51.395Z,7.18
2022-10-17T12:04:14.426Z,6.80
2022-10-17T12:07:36.732Z,6.18
2022-10-17T12:10:53.819Z,8.77
2022-10-17T12:13:56.904Z,6.73
2022-10-17T12:16:59.255Z,23.20
2022-10-17T12:20:26.339Z,7.55
2022-10-17T12:23:32.760Z,6.37
2022-10-17T12:26:34.510Z,10.65
2022-10-17T12:29:36.476Z,6.47
2022-10-17T12:33:05.551Z,5.32
2022-10-17T12:36:17.103Z,9.02
2022-10-17T12:39:18.578Z,7.85
2022-10-17T12:42:31.568Z,7.75
2022-10-17T12:46:02.874Z,11.50
2022-10-17T12:49:19.599Z,6.87
2022-10-17T12:52:27.635Z,14.00
2022-10-17T12:55:29.353Z,7.87
2022-10-17T12:58:31.389Z,8.10
2022-10-17T13:01:36.797Z,43.25
2022-10-17T13:04:38.645Z,7.62
2022-10-17T13:07:44.511Z,9.82
2022-10-17T13:10:51.804Z,13.85
2022-10-17T13:13:57.971Z,9.93
2022-10-17T13:17:06.201Z,9.35
2022-10-17T13:20:25.481Z,5.35
2022-10-17T13:23:36.344Z,6.35
2022-10-17T13:26:37.937Z,5.82
2022-10-17T13:29:44.518Z,8.10
2022-10-17T13:32:46.385Z,5.53
2022-10-17T13:36:00.137Z,7.10
2022-10-17T13:39:12.207Z,17.17
2022-10-17T13:42:24.662Z,5.12
2022-10-17T13:45:37.073Z,7.03
2022-10-17T13:48:38.785Z,10.70
2022-10-17T13:51:45.072Z,13.85
2022-10-17T13:54:51.244Z,10.07
2022-10-17T13:57:53.155Z,18.10
2022-10-17T14:00:55.039Z,6.95
2022-10-17T14:04:08.315Z,21.62
2022-10-17T14:07:26.424Z,10.98
2022-10-17T14:10:34.895Z,13.40
2022-10-17T14:13:36.520Z,10.18
2022-10-17T14:16:43.372Z,8.13
2022-10-17T14:23:21.376Z,8.65
2022-10-17T14:26:24.223Z,13.75
2022-10-17T14:29:50.390Z,6.87
2022-10-17T14:32:56.938Z,14.85
2022-10-17T14:36:01.603Z,4.50
2022-10-17T14:39:05.434Z,5.70
2022-10-17T14:42:07.277Z,9.60
2022-10-17T14:45:14.659Z,16.90
2022-10-17T14:48:18.744Z,27.52
2022-10-17T14:51:20.714Z,11.73
2022-10-17T14:54:29.331Z,12.30
2022-10-17T14:57:33.938Z,23.10
2022-10-17T15:00:35.525Z,11.93
2022-10-17T15:03:37.354Z,14.98
2022-10-17T15:06:40.693Z,13.62
2022-10-17T15:09:43.896Z,16.02
2022-10-17T15:12:52.077Z,9.60
2022-10-17T15:16:01.546Z,14.85
2022-10-17T15:19:03.505Z,14.73
2022-10-17T15:22:05.137Z,19.62
2022-10-17T15:25:07.293Z,8.18
2022-10-17T15:28:13.190Z,9.02
2022-10-17T15:31:18.693Z,7.30
2022-10-17T15:34:20.468Z,19.77
2022-10-17T15:37:24.449Z,9.93
2022-10-17T15:40:29.412Z,13.13
2022-10-17T15:43:31.171Z,29.87
2022-10-17T15:46:34.845Z,26.15
2022-10-17T15:49:36.393Z,23.27
2022-10-17T15:52:38.483Z,17.08
2022-10-17T15:55:40.785Z,19.65
2022-10-17T15:58:42.413Z,15.48
2022-10-17T16:01:44.527Z,24.58
2022-10-17T16:04:47.597Z,34.17
2022-10-17T16:07:49.993Z,20.62
2022-10-17T16:10:52.366Z,16.52
2022-10-17T16:13:57.029Z,12.57
2022-10-17T16:16:59.852Z,9.10
2022-10-17T16:20:01.604Z,8.73
2022-10-17T16:23:04.177Z,7.35
2022-10-17T16:26:06.291Z,7.28
2022-10-17T16:29:09.398Z,16.67
2022-10-17T16:32:11.500Z,31.37
2022-10-17T16:35:19.511Z,15.70
2022-10-17T16:38:21.211Z,17.52
2022-10-17T16:41:35.347Z,24.70
2022-10-17T16:44:37.047Z,16.17
2022-10-17T16:47:38.658Z,27.58
2022-10-17T16:50:40.804Z,17.62
2022-10-17T16:53:45.793Z,35.50
2022-10-17T16:56:47.537Z,20.17
2022-10-17T16:59:49.142Z,34.97
2022-10-17T17:02:51.126Z,22.60
2022-10-17T17:05:52.716Z,22.10
2022-10-17T17:08:55.327Z,18.33
2022-10-17T17:11:58.299Z,14.18
2022-10-17T17:15:02.935Z,13.77
2022-10-17T17:18:08.662Z,12.18
2022-10-17T17:21:11.639Z,14.98
2022-10-17T17:24:13.961Z,12.40
2022-10-17T17:27:16.108Z,16.80
2022-10-17T17:30:18.351Z,23.60
2022-10-17T17:33:21.188Z,24.42
2022-10-17T17:36:30.131Z,25.90
2022-10-17T17:39:31.946Z,30.70
2022-10-17T17:42:34.551Z,32.33
2022-10-17T17:45:37.108Z,36.38
2022-10-17T17:48:41.186Z,47.40
2022-10-17T17:51:46.927Z,60.65
2022-10-17T17:54:50.356Z,83.55
2022-10-17T17:57:52.179Z,69.68
